Bookmark and Share
Track history (hours):
 

M\t Procida

Last reported at 2014-Apr-20 23:17 UTC. Time now 2014-Apr-24 09:35 UTC.
Position N 38°00' E 015°32'.

Length 149 m; draft 8.3 m.

Type: Ship. MMSI: 247258400.

NotesDate/timePositionNaut miles runAvg speedWind from/ knotsBaromVisibWave heightAir tempDewpointWater temp
2014-Apr-20 23:17N 38°00' E 015°32'811.3
2014-Apr-20 22:33N 38°08' E 015°35'1110.4
2014-Apr-20 21:28N 38°18' E 015°41'9 9.8
2014-Apr-20 20:33N 38°27' E 015°36'1 0.6
2014-Apr-20 19:33N 38°26' E 015°36'10 8.7
2014-Apr-20 18:24N 38°36' E 015°36'37911.5
2014-Apr-19 09:26N 42°59' E 009°36'1010.9
2014-Apr-19 08:33N 43°09' E 009°33'1010.4
2014-Apr-19 07:33N 43°19' E 009°29'1110.8
2014-Apr-19 06:33N 43°29' E 009°24'1110.5
2014-Apr-19 05:33N 43°39' E 009°20'1010.2
2014-Apr-19 04:33N 43°49' E 009°15'10 9.8
2014-Apr-19 03:33N 43°57' E 009°08'10 9.6
2014-Apr-19 02:33N 44°05' E 009°01'1010.2
2014-Apr-19 01:33N 44°13' E 008°53'1110.7
2014-Apr-19 00:33N 44°23' E 008°46'3 3.3
2014-Apr-18 23:31N 44°25' E 008°50'0 0.0
2014-Apr-18 03:04N 44°25' E 008°50'0 0.0
2014-Apr-18 01:04N 44°25' E 008°50'0 0.0
2014-Apr-18 00:28N 44°25' E 008°50'0 0.0
2014-Apr-17 20:22N 44°25' E 008°50'0 0.0
2014-Apr-17 19:16N 44°25' E 008°50'0 0.0
2014-Apr-17 03:13N 44°25' E 008°50'0 0.0
2014-Apr-17 02:16N 44°25' E 008°50'0 0.0
2014-Apr-17 01:31N 44°25' E 008°50'0 0.0
2014-Apr-17 00:31N 44°25' E 008°50'0 0.0
2014-Apr-16 15:28N 44°25' E 008°50'3 3.6
2014-Apr-16 14:33N 44°23' E 008°47'3 2.9
2014-Apr-16 13:29N 44°24' E 008°51'0 0.0
2014-Apr-16 12:32N 44°24' E 008°51'0 0.0
2014-Apr-16 11:32N 44°24' E 008°51'0 0.0
2014-Apr-16 10:29N 44°24' E 008°51'0 0.1
2014-Apr-16 09:32N 44°24' E 008°51'0 0.1
2014-Apr-16 08:32N 44°24' E 008°51'0 0.0
2014-Apr-16 07:32N 44°24' E 008°51'0 0.0
2014-Apr-16 06:32N 44°24' E 008°51'0 0.0
2014-Apr-16 05:32N 44°24' E 008°51'0 0.0
2014-Apr-16 04:32N 44°24' E 008°51'0 0.0
2014-Apr-16 03:32N 44°24' E 008°51'0 0.0
2014-Apr-16 02:32N 44°24' E 008°51'0 0.0
2014-Apr-16 01:32N 44°24' E 008°51'0 0.0
2014-Apr-16 00:32N 44°24' E 008°51'0 0.0
2014-Apr-15 23:32N 44°24' E 008°51'0 0.0
2014-Apr-15 22:32N 44°24' E 008°51'0 0.0
2014-Apr-15 21:32N 44°24' E 008°51'0 0.0
2014-Apr-15 20:32N 44°24' E 008°51'0 0.1
2014-Apr-15 19:29N 44°24' E 008°51'0 0.1
2014-Apr-15 18:32N 44°24' E 008°51'0 0.1
2014-Apr-15 17:32N 44°24' E 008°51'0 0.1
2014-Apr-15 16:32N 44°24' E 008°51'0 0.0
2014-Apr-15 15:32N 44°24' E 008°51'0 0.1
2014-Apr-15 14:32N 44°24' E 008°51'0 0.0
2014-Apr-15 12:33N 44°24' E 008°51'0 0.1
2014-Apr-15 11:33N 44°24' E 008°51'0 0.0
2014-Apr-15 10:33N 44°24' E 008°51'0 0.1
2014-Apr-15 09:33N 44°24' E 008°51'0 0.0
2014-Apr-15 08:33N 44°24' E 008°51'0 0.0
2014-Apr-15 07:33N 44°24' E 008°51'0 0.1
2014-Apr-15 06:33N 44°24' E 008°51'0 0.0
2014-Apr-15 05:33N 44°24' E 008°51'6 2.8
2014-Apr-15 03:34N 44°18' E 008°51'2 1.9
2014-Apr-15 02:34N 44°17' E 008°49'5 4.9
2014-Apr-15 01:34N 44°14' E 008°55'1312.8
2014-Apr-15 00:34N 44°03' E 009°05'1313.1
2014-Apr-14 23:34N 43°52' E 009°14'6 5.6
2014-Apr-14 22:34N 43°46' E 009°16'1 1.5
2014-Apr-14 21:34N 43°45' E 009°16'1 1.3
2014-Apr-14 20:34N 43°43' E 009°16'1 1.2
2014-Apr-14 19:34N 43°42' E 009°16'4 4.1
2014-Apr-14 18:34N 43°40' E 009°20'1313.3
2014-Apr-14 17:34N 43°27' E 009°26'1212.0
2014-Apr-14 16:34N 43°16' E 009°32'1212.5
2014-Apr-14 15:34N 43°04' E 009°37'24412.0
2014-Apr-13 19:10N 38°60' E 009°36'712.0
2014-Apr-13 18:34N 39°00' E 009°27'1212.1
2014-Apr-13 17:33N 39°04' E 009°12'8 7.9
2014-Apr-13 16:32N 39°06' E 009°02'0 0.0
2014-Apr-13 15:32N 39°06' E 009°02'0 0.0
2014-Apr-13 14:32N 39°06' E 009°02'0 0.0
2014-Apr-13 13:32N 39°06' E 009°02'0 0.0
2014-Apr-13 12:32N 39°06' E 009°02'0 0.0
2014-Apr-13 11:32N 39°06' E 009°02'0 0.0
2014-Apr-13 10:32N 39°06' E 009°02'0 0.0
2014-Apr-13 09:23N 39°06' E 009°02'0 0.0
2014-Apr-13 08:32N 39°06' E 009°02'0 0.0
2014-Apr-13 07:32N 39°06' E 009°02'0 0.0
2014-Apr-13 06:32N 39°06' E 009°02'0 0.0
2014-Apr-13 05:32N 39°06' E 009°02'0 0.0
2014-Apr-13 04:32N 39°06' E 009°02'0 0.0
2014-Apr-13 03:32N 39°06' E 009°02'0 0.0
2014-Apr-13 02:32N 39°06' E 009°02'0 0.0
2014-Apr-13 01:32N 39°06' E 009°02'0 0.0
2014-Apr-13 00:32N 39°06' E 009°02'0 0.0
2014-Apr-12 23:32N 39°06' E 009°02'0 0.0
2014-Apr-12 22:32N 39°06' E 009°02'0 0.0
2014-Apr-12 21:32N 39°06' E 009°02'0 0.0
2014-Apr-12 20:32N 39°06' E 009°02'0 0.0
2014-Apr-12 19:32N 39°06' E 009°02'0 0.0
2014-Apr-12 18:32N 39°06' E 009°02'0 0.0
2014-Apr-12 17:32N 39°06' E 009°02'0 0.0
2014-Apr-12 16:32N 39°06' E 009°02'0 0.0
2014-Apr-12 15:32N 39°06' E 009°02'0 0.0
2014-Apr-12 14:32N 39°06' E 009°02'0 0.0
2014-Apr-12 13:32N 39°06' E 009°02'0 0.0
2014-Apr-12 12:32N 39°06' E 009°02'0 0.0
2014-Apr-12 11:32N 39°06' E 009°02'0 0.0
2014-Apr-12 10:29N 39°06' E 009°02'0 0.0
2014-Apr-12 09:32N 39°06' E 009°02'0 0.0
2014-Apr-12 08:32N 39°06' E 009°02'0 0.0
2014-Apr-12 07:32N 39°06' E 009°02'0 0.0
2014-Apr-12 06:32N 39°06' E 009°02'0 0.0
2014-Apr-12 05:32N 39°06' E 009°02'0 0.0
2014-Apr-12 04:32N 39°06' E 009°02'0 0.0
2014-Apr-12 03:32N 39°06' E 009°02'0 0.0
2014-Apr-12 02:32N 39°06' E 009°02'0 0.0
2014-Apr-12 01:32N 39°06' E 009°02'0 0.0
2014-Apr-12 00:32N 39°06' E 009°02'0 0.0
2014-Apr-11 23:32N 39°06' E 009°02'0 0.0
2014-Apr-11 22:32N 39°06' E 009°02'0 0.0
2014-Apr-11 21:32N 39°06' E 009°02'0 0.0
2014-Apr-11 20:32N 39°06' E 009°02'1 0.9
2014-Apr-11 19:34N 39°06' E 009°03'9 8.9
2014-Apr-11 18:33N 39°00' E 009°12'1212.3
2014-Apr-11 17:33N 38°54' E 009°26'1212.4
2014-Apr-11 16:34N 38°48' E 009°40'1612.5
2014-Apr-11 15:17N 38°40' E 009°57'  

Dump ship's entire track history

sailing weather and tide predictions

M\t Procida — IBJT — position and weather